Time;durP1;ratioP1;P1;durP2;ratioP2;P2;SDS_P1;SDS_P2;PMS_P1;PMS_P2;Temp;Humidity;BMP_temperature;BMP_pressure;BME280_temperature;BME280_humidity;BME280_pressure;Samples;Min_cycle;Max_cycle;Signal;HPM_P1;HPM_P2
2022/03/11 00:00:56;;;;;;;4.63;4.05;;;15.50;33.90;;;;;;5116298;27;20073;-72
2022/03/11 00:03:22;;;;;;;4.57;4.07;;;15.50;33.90;;;;;;5116382;27;20043;-71
2022/03/11 00:05:48;;;;;;;4.93;3.58;;;15.50;33.90;;;;;;5116121;27;20039;-71
2022/03/11 00:08:17;;;;;;;3.65;3.35;;;15.50;33.90;;;;;;5116048;27;20039;-71
2022/03/11 00:10:42;;;;;;;4.10;3.65;;;15.40;33.90;;;;;;5134449;27;20083;-71
2022/03/11 00:13:08;;;;;;;3.75;3.42;;;15.40;33.90;;;;;;5115519;27;20069;-71
2022/03/11 00:15:34;;;;;;;4.90;3.60;;;15.40;33.90;;;;;;5116231;27;20057;-71
2022/03/11 00:18:00;;;;;;;3.65;3.35;;;15.40;33.90;;;;;;5134172;27;20526;-70
2022/03/11 00:20:26;;;;;;;3.45;3.00;;;15.40;34.00;;;;;;5116112;27;20042;-70
2022/03/11 00:22:53;;;;;;;3.88;2.70;;;15.40;34.00;;;;;;5115881;27;20554;-71
2022/03/11 00:25:19;;;;;;;3.72;3.40;;;15.30;34.00;;;;;;5116189;27;20043;-72
2022/03/11 00:27:46;;;;;;;4.78;3.50;;;15.30;34.10;;;;;;5115890;27;20046;-70
2022/03/11 00:30:12;;;;;;;3.88;3.15;;;15.30;34.10;;;;;;5115665;27;20049;-71
2022/03/11 00:32:38;;;;;;;4.40;3.00;;;15.30;34.10;;;;;;5133584;27;20083;-71
2022/03/11 00:35:08;;;;;;;4.50;2.95;;;15.30;34.10;;;;;;5115518;27;20043;-71
2022/03/11 00:37:35;;;;;;;3.93;2.83;;;15.30;34.10;;;;;;5116207;27;20050;-71
2022/03/11 00:40:00;;;;;;;3.97;3.58;;;15.30;34.20;;;;;;5115599;27;20763;-70
2022/03/11 00:42:27;;;;;;;4.47;3.55;;;15.20;34.10;;;;;;5133830;27;20083;-71
2022/03/11 00:44:53;;;;;;;3.22;2.90;;;15.20;34.20;;;;;;5133907;27;20049;-70
2022/03/11 00:47:18;;;;;;;3.67;3.05;;;15.20;34.20;;;;;;5133574;27;20121;-71
2022/03/11 00:49:45;;;;;;;3.47;3.05;;;15.20;34.30;;;;;;5114919;27;20070;-70
2022/03/11 00:52:10;;;;;;;4.88;3.50;;;15.20;34.30;;;;;;5115169;27;20043;-72
2022/03/11 00:54:36;;;;;;;4.53;4.10;;;15.10;34.30;;;;;;5133694;27;20035;-71
2022/03/11 00:57:02;;;;;;;4.72;3.85;;;15.00;34.30;;;;;;5115101;27;20057;-71
2022/03/11 00:59:31;;;;;;;3.60;2.95;;;15.10;34.50;;;;;;5115130;27;20046;-70
2022/03/11 01:01:59;;;;;;;3.58;3.00;;;15.00;34.60;;;;;;5115367;27;20043;-70
2022/03/11 01:04:25;;;;;;;3.13;2.80;;;15.10;34.60;;;;;;5115378;27;20043;-70
2022/03/11 01:06:51;;;;;;;3.67;2.63;;;15.40;34.40;;;;;;5114911;27;20401;-70
2022/03/11 01:09:17;;;;;;;5.05;3.22;;;15.70;34.00;;;;;;5114520;27;20039;-71
2022/03/11 01:11:43;;;;;;;4.70;3.20;;;16.20;33.40;;;;;;5114984;27;20490;-70
2022/03/11 01:14:08;;;;;;;5.72;2.90;;;16.60;32.70;;;;;;5114998;27;20042;-70
2022/03/11 01:16:34;;;;;;;3.17;2.70;;;17.10;32.00;;;;;;5114792;27;20039;-70
2022/03/11 01:19:00;;;;;;;3.28;2.97;;;17.50;31.40;;;;;;5115003;27;20039;-71
2022/03/11 01:21:26;;;;;;;2.40;2.20;;;17.90;30.90;;;;;;5114846;27;20433;-70
2022/03/11 01:23:53;;;;;;;2.80;2.60;;;18.30;30.50;;;;;;5114708;27;20050;-71
2022/03/11 01:26:19;;;;;;;2.47;2.28;;;18.60;30.00;;;;;;5114696;27;20039;-71
2022/03/11 01:28:45;;;;;;;2.75;2.50;;;18.90;29.70;;;;;;5114577;27;20035;-70
2022/03/11 01:31:12;;;;;;;3.47;3.10;;;19.20;29.40;;;;;;5114645;27;20084;-70
2022/03/11 01:33:39;;;;;;;2.85;2.10;;;19.40;29.10;;;;;;5114730;27;20053;-71
2022/03/11 01:36:06;;;;;;;2.22;2.03;;;19.60;28.80;;;;;;5114949;27;20117;-71
2022/03/11 01:38:32;;;;;;;2.65;2.30;;;19.90;28.70;;;;;;5114822;27;20585;-70
2022/03/11 01:40:58;;;;;;;3.03;2.13;;;20.10;28.50;;;;;;5114565;27;20096;-71
2022/03/11 01:43:23;;;;;;;3.15;2.53;;;20.20;28.30;;;;;;5114690;28;20058;-71
2022/03/11 01:45:49;;;;;;;3.65;2.45;;;20.30;28.00;;;;;;5114575;27;20044;-70
2022/03/11 01:48:15;;;;;;;2.45;2.03;;;20.50;27.90;;;;;;5132902;27;20386;-71
2022/03/11 01:50:42;;;;;;;2.78;1.80;;;20.60;27.80;;;;;;5114220;28;20039;-71
2022/03/11 01:53:10;;;;;;;2.65;2.05;;;20.80;27.60;;;;;;5114256;28;20043;-71
2022/03/11 01:55:36;;;;;;;3.50;2.30;;;20.80;27.50;;;;;;5132862;28;20125;-70
2022/03/11 01:58:03;;;;;;;2.55;1.88;;;21.00;27.40;;;;;;5114422;28;20053;-70
2022/03/11 02:00:30;;;;;;;2.40;2.00;;;21.10;27.30;;;;;;5114394;28;20047;-71
2022/03/11 02:02:56;;;;;;;3.17;2.40;;;21.10;27.20;;;;;;5114517;28;20042;-71
2022/03/11 02:05:22;;;;;;;2.83;1.95;;;21.20;27.10;;;;;;5114227;28;20055;-70
2022/03/11 02:07:52;;;;;;;1.90;1.58;;;21.30;27.00;;;;;;5114221;28;20050;-70
2022/03/11 02:10:21;;;;;;;2.97;1.85;;;21.40;26.90;;;;;;5114189;28;20043;-71
2022/03/11 02:12:47;;;;;;;1.60;1.42;;;21.40;26.80;;;;;;5132620;28;20051;-71
2022/03/11 02:15:13;;;;;;;3.10;1.88;;;21.50;26.80;;;;;;5114184;28;20035;-71
2022/03/11 02:17:44;;;;;;;2.58;2.03;;;21.60;26.70;;;;;;5113921;28;20065;-70
2022/03/11 02:20:11;;;;;;;2.35;1.70;;;21.60;26.70;;;;;;5132247;28;20043;-71
2022/03/11 02:22:41;;;;;;;3.20;1.65;;;21.70;26.60;;;;;;5114193;28;20066;-71
2022/03/11 02:25:08;;;;;;;2.37;1.63;;;21.80;26.50;;;;;;5114331;28;20380;-71
2022/03/11 02:27:38;;;;;;;3.58;1.83;;;21.80;26.40;;;;;;5114145;28;20287;-71
2022/03/11 02:30:16;;;;;;;2.42;1.95;;;21.90;26.40;;;;;;5132634;28;20081;-70
2022/03/11 02:32:42;;;;;;;1.98;1.58;;;21.90;26.40;;;;;;5114372;28;20093;-70
2022/03/11 02:35:08;;;;;;;2.67;1.67;;;22.00;26.30;;;;;;5114280;28;20550;-71
2022/03/11 02:37:34;;;;;;;3.17;1.65;;;22.00;26.20;;;;;;5113985;28;20050;-70
2022/03/11 02:40:00;;;;;;;2.60;1.60;;;22.00;26.20;;;;;;5113985;28;20039;-71
2022/03/11 02:42:26;;;;;;;2.45;1.90;;;22.10;26.20;;;;;;5114171;28;20039;-71
2022/03/11 02:44:54;;;;;;;2.05;1.80;;;22.10;26.20;;;;;;5114116;28;20054;-71
2022/03/11 02:47:20;;;;;;;2.85;1.98;;;22.20;26.10;;;;;;5113859;28;20118;-71
2022/03/11 02:49:45;;;;;;;3.35;2.05;;;22.20;26.10;;;;;;5113666;28;20130;-71
2022/03/11 02:52:11;;;;;;;2.28;1.48;;;22.20;26.10;;;;;;5113718;28;20039;-71
2022/03/11 02:54:37;;;;;;;2.88;1.73;;;22.20;26.10;;;;;;5132314;28;20035;-70
2022/03/11 02:57:03;;;;;;;3.35;2.15;;;22.20;26.10;;;;;;5133982;27;20035;-71
2022/03/11 02:59:28;;;;;;;2.38;1.70;;;22.20;26.00;;;;;;5136196;27;20391;-71
2022/03/11 03:01:54;;;;;;;1.52;1.38;;;22.30;26.00;;;;;;5136046;27;20118;-71
2022/03/11 03:04:20;;;;;;;3.08;2.38;;;22.30;26.00;;;;;;5136171;27;20189;-70
2022/03/11 03:06:45;;;;;;;2.45;1.88;;;22.30;26.60;;;;;;5117519;27;20050;-71
2022/03/11 03:09:11;;;;;;;2.33;1.92;;;22.40;26.00;;;;;;5117245;27;20657;-71
2022/03/11 03:11:36;;;;;;;2.03;1.70;;;22.40;25.90;;;;;;5117279;27;20042;-70
2022/03/11 03:14:03;;;;;;;1.70;1.38;;;22.40;25.90;;;;;;5136393;27;20076;-71
2022/03/11 03:16:28;;;;;;;2.10;1.63;;;22.40;26.00;;;;;;5117375;27;20486;-72
2022/03/11 03:18:54;;;;;;;3.38;2.03;;;22.30;26.00;;;;;;5117354;27;20035;-70
2022/03/11 03:21:20;;;;;;;2.53;2.20;;;22.30;26.00;;;;;;5135718;27;20449;-70
2022/03/11 03:23:45;;;;;;;3.22;2.20;;;22.20;26.00;;;;;;5117121;27;20497;-70
2022/03/11 03:26:12;;;;;;;2.40;1.90;;;22.20;26.10;;;;;;5116963;27;20126;-71
2022/03/11 03:28:37;;;;;;;3.65;2.70;;;22.20;26.10;;;;;;5116399;27;20162;-70
2022/03/11 03:31:03;;;;;;;2.45;1.95;;;22.20;26.00;;;;;;5116849;27;20063;-71
2022/03/11 03:33:31;;;;;;;2.65;2.08;;;22.30;26.00;;;;;;5116854;27;20049;-71
2022/03/11 03:35:56;;;;;;;2.78;2.00;;;22.30;26.00;;;;;;5117131;27;20039;-72
2022/03/11 03:38:22;;;;;;;3.15;1.98;;;22.40;26.00;;;;;;5135187;27;20464;-70
2022/03/11 03:40:48;;;;;;;3.85;2.17;;;22.40;25.90;;;;;;5116679;27;20126;-71
2022/03/11 03:43:14;;;;;;;2.45;1.98;;;22.40;25.90;;;;;;5135023;27;20042;-70
2022/03/11 03:45:40;;;;;;;2.42;2.22;;;22.40;25.80;;;;;;5116945;27;20031;-72
2022/03/11 03:48:06;;;;;;;2.83;1.90;;;22.50;25.80;;;;;;5116656;27;20035;-71
2022/03/11 03:50:32;;;;;;;3.33;2.35;;;22.50;25.80;;;;;;5134615;27;20150;-72
2022/03/11 03:52:58;;;;;;;2.10;1.85;;;22.50;25.80;;;;;;5116348;27;20047;-71
2022/03/11 03:55:23;;;;;;;2.85;2.13;;;22.60;25.80;;;;;;5116160;27;20054;-71
2022/03/11 03:57:49;;;;;;;2.83;2.17;;;22.60;25.70;;;;;;5134525;27;20031;-71
2022/03/11 04:00:15;;;;;;;2.75;2.05;;;22.70;25.70;;;;;;5116377;27;20046;-72
2022/03/11 04:02:46;;;;;;;3.35;2.08;;;22.70;25.70;;;;;;5116130;27;20043;-71
2022/03/11 04:05:13;;;;;;;3.05;2.25;;;22.70;26.20;;;;;;5116667;27;20078;-72
2022/03/11 04:07:41;;;;;;;3.25;2.30;;;22.70;25.60;;;;;;5116657;27;20046;-72
2022/03/11 04:10:07;;;;;;;2.78;2.25;;;22.80;25.60;;;;;;5116153;27;20092;-71
2022/03/11 04:12:33;;;;;;;3.92;2.40;;;22.80;25.60;;;;;;5115759;27;20039;-71
2022/03/11 04:14:58;;;;;;;4.35;2.50;;;22.80;25.60;;;;;;5116196;27;20367;-71
2022/03/11 04:17:24;;;;;;;3.03;2.55;;;22.80;25.60;;;;;;5134332;27;20031;-70
2022/03/11 04:19:50;;;;;;;3.13;2.58;;;22.90;25.60;;;;;;5116510;27;20045;-71
2022/03/11 04:22:15;;;;;;;3.42;2.38;;;22.90;25.50;;;;;;5134435;27;20386;-71
2022/03/11 04:24:41;;;;;;;3.17;1.95;;;22.90;25.50;;;;;;5115726;27;20081;-71
2022/03/11 04:27:08;;;;;;;3.17;2.50;;;22.90;25.50;;;;;;5115802;27;20043;-71
2022/03/11 04:29:34;;;;;;;2.78;2.53;;;23.00;25.50;;;;;;5134130;27;20470;-71
2022/03/11 04:32:00;;;;;;;3.65;2.55;;;22.90;25.50;;;;;;5133759;27;20069;-72
2022/03/11 04:34:26;;;;;;;2.67;2.38;;;23.00;26.10;;;;;;5133884;27;20038;-71
2022/03/11 04:36:51;;;;;;;3.63;1.92;;;23.00;25.50;;;;;;5115560;27;20470;-71
2022/03/11 04:39:17;;;;;;;2.38;2.17;;;23.00;25.50;;;;;;5115514;27;20035;-71
2022/03/11 04:41:44;;;;;;;3.15;2.53;;;22.90;25.40;;;;;;5115896;27;20070;-71
2022/03/11 04:44:10;;;;;;;3.22;2.75;;;23.00;25.40;;;;;;5115475;27;20518;-71
2022/03/11 04:46:35;;;;;;;3.00;2.72;;;23.00;25.40;;;;;;5133238;27;20042;-71
2022/03/11 04:49:01;;;;;;;2.80;2.50;;;23.00;25.40;;;;;;5133308;27;20142;-71
2022/03/11 04:51:27;;;;;;;2.83;2.53;;;23.00;25.40;;;;;;5115369;27;20394;-71
2022/03/11 04:53:54;;;;;;;3.30;2.67;;;23.00;25.40;;;;;;5115261;27;20111;-71
2022/03/11 04:56:20;;;;;;;4.28;2.95;;;23.00;25.40;;;;;;5115555;27;20108;-71
2022/03/11 04:58:45;;;;;;;3.65;2.85;;;23.00;25.30;;;;;;5115443;27;20031;-71
2022/03/11 05:01:11;;;;;;;3.35;2.50;;;23.00;25.30;;;;;;5115457;27;20043;-71
2022/03/11 05:03:40;;;;;;;3.45;3.15;;;23.00;25.30;;;;;;5115281;27;20493;-71
2022/03/11 05:06:06;;;;;;;3.50;2.47;;;23.00;25.30;;;;;;5115282;27;20092;-71
2022/03/11 05:08:31;;;;;;;4.03;2.80;;;23.00;25.30;;;;;;5115114;27;20038;-71
2022/03/11 05:10:57;;;;;;;3.40;2.70;;;23.10;25.30;;;;;;5133390;27;20118;-71
2022/03/11 05:13:23;;;;;;;3.65;2.78;;;23.10;25.30;;;;;;5133340;27;20471;-72
2022/03/11 05:15:49;;;;;;;3.38;3.08;;;23.20;25.20;;;;;;5115282;27;20478;-72
2022/03/11 05:18:14;;;;;;;4.00;2.80;;;23.30;25.20;;;;;;5114739;27;20058;-71
2022/03/11 05:20:40;;;;;;;4.30;2.95;;;23.30;25.10;;;;;;5132807;27;20045;-71
2022/03/11 05:23:06;;;;;;;3.78;3.10;;;23.40;25.10;;;;;;5115079;27;20050;-71
2022/03/11 05:25:31;;;;;;;4.20;2.70;;;23.50;25.00;;;;;;5114928;27;20431;-71
2022/03/11 05:27:57;;;;;;;4.05;2.80;;;23.60;25.00;;;;;;5133131;27;20031;-71
2022/03/11 05:30:23;;;;;;;3.50;3.20;;;23.70;24.90;;;;;;5132994;27;20168;-71
2022/03/11 05:32:51;;;;;;;4.00;2.95;;;23.80;24.80;;;;;;5114730;27;20031;-71
2022/03/11 05:35:17;;;;;;;3.10;2.80;;;23.80;24.70;;;;;;5132981;27;20123;-72
2022/03/11 05:37:43;;;;;;;3.80;3.25;;;23.90;24.60;;;;;;5114906;27;20078;-71
2022/03/11 05:40:09;;;;;;;3.50;3.05;;;24.00;24.60;;;;;;5114791;27;20103;-71
2022/03/11 05:42:35;;;;;;;3.75;3.35;;;24.10;24.50;;;;;;5114789;27;20035;-71
2022/03/11 05:45:02;;;;;;;3.53;3.17;;;24.10;24.40;;;;;;5114525;28;20398;-72
2022/03/11 05:47:31;;;;;;;4.05;3.20;;;24.20;24.30;;;;;;5114429;27;20482;-72
2022/03/11 05:49:56;;;;;;;3.75;3.40;;;24.30;24.30;;;;;;5113924;28;20550;-72
2022/03/11 05:52:22;;;;;;;3.60;3.20;;;24.30;24.20;;;;;;5114296;28;20047;-71
2022/03/11 05:54:48;;;;;;;4.90;3.53;;;24.40;24.20;;;;;;5132783;28;20043;-72
2022/03/11 05:57:14;;;;;;;3.90;3.50;;;24.40;24.10;;;;;;5132664;28;20073;-72
2022/03/11 05:59:40;;;;;;;4.20;3.80;;;24.50;24.10;;;;;;5114331;28;20397;-72
2022/03/11 06:02:05;;;;;;;4.03;3.67;;;24.50;24.10;;;;;;5114311;28;20043;-73
2022/03/11 06:04:31;;;;;;;4.25;3.85;;;24.50;24.00;;;;;;5114191;28;20070;-72
2022/03/11 06:06:57;;;;;;;4.53;3.55;;;24.60;24.00;;;;;;5131961;27;20030;-72
2022/03/11 06:09:22;;;;;;;4.85;4.40;;;24.70;24.00;;;;;;5114049;28;20051;-72
2022/03/11 06:11:48;;;;;;;4.05;3.75;;;24.70;23.90;;;;;;5114249;28;20088;-72
2022/03/11 06:14:14;;;;;;;4.38;3.65;;;24.70;23.90;;;;;;5114291;28;20035;-71
2022/03/11 06:16:39;;;;;;;4.82;4.32;;;24.80;23.80;;;;;;5114449;28;20126;-72
2022/03/11 06:19:05;;;;;;;3.78;3.20;;;24.80;23.80;;;;;;5113454;27;20470;-72
2022/03/11 06:21:30;;;;;;;3.97;3.58;;;24.90;23.80;;;;;;5114200;28;20043;-72
2022/03/11 06:23:57;;;;;;;4.25;3.83;;;24.90;23.70;;;;;;5114116;28;20046;-72
2022/03/11 06:26:24;;;;;;;4.75;4.30;;;24.90;23.70;;;;;;5114420;28;20091;-71
2022/03/11 06:28:49;;;;;;;4.78;4.32;;;24.90;23.70;;;;;;5114035;28;20051;-72
2022/03/11 06:31:15;;;;;;;5.20;4.65;;;24.90;23.60;;;;;;5111964;27;20050;-70
2022/03/11 06:33:41;;;;;;;6.97;6.28;;;24.90;23.90;;;;;;5115786;27;20054;-69
2022/03/11 06:36:07;;;;;;;6.90;6.30;;;24.80;23.90;;;;;;5116373;27;20035;-70
2022/03/11 06:38:32;;;;;;;8.38;7.57;;;24.50;23.80;;;;;;5134118;27;20035;-70
2022/03/11 06:41:01;;;;;;;8.40;7.55;;;24.30;23.90;;;;;;5135038;27;20052;-69
2022/03/11 06:43:26;;;;;;;9.02;7.85;;;24.00;24.00;;;;;;5115501;27;20035;-69
2022/03/11 06:45:52;;;;;;;8.93;8.02;;;23.80;24.20;;;;;;5133812;27;20031;-70
2022/03/11 06:48:19;;;;;;;9.23;8.32;;;23.60;24.30;;;;;;5133471;27;20122;-71
2022/03/11 06:50:45;;;;;;;8.20;7.43;;;23.30;24.40;;;;;;5114170;27;20136;-68
2022/03/11 06:53:11;;;;;;;7.47;6.78;;;23.20;24.70;;;;;;5115486;27;20430;-73
2022/03/11 06:55:36;;;;;;;7.07;6.47;;;23.00;24.90;;;;;;5115367;27;20118;-71
2022/03/11 06:58:02;;;;;;;6.90;6.28;;;22.90;25.10;;;;;;5114859;27;20154;-71
2022/03/11 07:00:28;;;;;;;6.57;5.88;;;22.80;25.20;;;;;;5105371;27;20039;-73
2022/03/11 07:02:54;;;;;;;6.45;5.85;;;22.80;25.30;;;;;;5097456;27;20038;-69
2022/03/11 07:05:19;;;;;;;6.18;5.57;;;22.80;25.40;;;;;;5110358;27;20046;-71
2022/03/11 07:07:46;;;;;;;6.07;5.38;;;22.80;25.60;;;;;;5111468;27;20046;-70
2022/03/11 07:10:12;;;;;;;6.35;5.65;;;22.80;25.70;;;;;;5111577;27;20063;-69
2022/03/11 07:12:38;;;;;;;6.28;5.68;;;22.80;25.70;;;;;;5109543;27;20103;-69
2022/03/11 07:15:05;;;;;;;7.05;6.03;;;22.80;25.70;;;;;;5110593;27;20035;-72
2022/03/11 07:17:32;;;;;;;7.30;5.68;;;22.80;25.70;;;;;;5110417;27;20121;-75
2022/03/11 07:19:58;;;;;;;6.22;5.63;;;22.80;25.70;;;;;;5104800;27;20035;-70
2022/03/11 07:22:25;;;;;;;6.35;4.90;;;22.90;25.70;;;;;;5119827;27;20042;-69
2022/03/11 07:24:50;;;;;;;5.82;5.10;;;23.00;25.70;;;;;;5105040;27;20070;-71
2022/03/11 07:27:16;;;;;;;4.93;4.43;;;23.10;25.90;;;;;;5107564;27;20074;-68
2022/03/11 07:29:45;;;;;;;4.93;4.20;;;23.10;26.00;;;;;;5104904;27;20058;-70
2022/03/11 07:32:12;;;;;;;5.60;5.10;;;23.10;26.10;;;;;;5107034;27;20721;-75
2022/03/11 07:34:38;;;;;;;5.78;4.82;;;23.10;26.10;;;;;;5111930;27;20070;-71
2022/03/11 07:37:06;;;;;;;6.50;4.22;;;23.00;26.00;;;;;;5112844;27;20027;-69
2022/03/11 07:39:32;;;;;;;7.15;5.72;;;22.90;26.00;;;;;;5114451;27;20046;-72
2022/03/11 07:41:58;;;;;;;5.47;4.63;;;22.90;26.00;;;;;;5131993;27;20087;-69
2022/03/11 07:44:24;;;;;;;7.75;5.32;;;22.80;26.20;;;;;;5105180;27;20616;-71
2022/03/11 07:46:49;;;;;;;5.82;5.30;;;22.70;26.00;;;;;;5100459;27;20441;-74
2022/03/11 07:49:15;;;;;;;5.38;4.88;;;22.60;26.10;;;;;;5115384;27;20050;-69
2022/03/11 07:51:41;;;;;;;6.07;5.47;;;22.40;26.10;;;;;;5123433;27;20815;-72
2022/03/11 07:54:07;;;;;;;6.88;5.53;;;22.30;27.20;;;;;;5107918;27;20036;-69
2022/03/11 07:56:32;;;;;;;7.65;6.15;;;22.10;27.10;;;;;;5129194;27;20031;-74
2022/03/11 07:58:59;;;;;;;6.05;5.38;;;21.80;27.20;;;;;;5108629;27;20069;-73
2022/03/11 08:01:25;;;;;;;7.47;5.93;;;21.70;27.50;;;;;;5129597;27;20068;-72
2022/03/11 08:03:52;;;;;;;7.30;6.43;;;21.40;27.60;;;;;;5129077;27;20153;-74
2022/03/11 08:06:17;;;;;;;6.97;6.18;;;21.30;28.00;;;;;;5125478;27;20049;-72
2022/03/11 08:08:43;;;;;;;6.97;5.47;;;21.00;28.30;;;;;;5111125;27;20129;-71
2022/03/11 08:11:09;;;;;;;6.30;5.70;;;20.80;28.60;;;;;;5100737;27;20043;-72
2022/03/11 08:13:35;;;;;;;7.28;5.20;;;20.60;28.80;;;;;;5101198;27;20387;-72
2022/03/11 08:16:02;;;;;;;5.75;5.05;;;20.50;29.00;;;;;;5125250;27;20035;-72
2022/03/11 08:18:27;;;;;;;5.65;4.60;;;20.40;29.30;;;;;;5092150;27;20533;-72
2022/03/11 08:20:53;;;;;;;6.82;4.53;;;20.40;29.60;;;;;;5100325;27;20081;-73
2022/03/11 08:23:19;;;;;;;5.70;4.90;;;20.40;29.80;;;;;;5125754;27;20380;-74
2022/03/11 08:25:45;;;;;;;6.30;5.15;;;20.50;29.80;;;;;;5119272;27;20031;-74
2022/03/11 08:28:13;;;;;;;7.20;4.72;;;20.60;29.70;;;;;;5103692;27;20085;-76
2022/03/11 08:30:40;;;;;;;7.22;5.63;;;20.70;29.70;;;;;;5124470;27;20043;-72
2022/03/11 08:33:07;;;;;;;5.05;4.55;;;20.90;29.60;;;;;;5097767;27;20074;-75
2022/03/11 08:35:33;;;;;;;5.30;4.80;;;21.10;29.30;;;;;;5102147;27;20039;-72
2022/03/11 08:37:59;;;;;;;5.10;4.63;;;21.30;29.20;;;;;;5098373;27;20039;-73
2022/03/11 08:40:26;;;;;;;6.40;4.85;;;21.40;29.10;;;;;;5101029;27;20074;-74
2022/03/11 08:42:55;;;;;;;5.45;4.90;;;21.40;28.90;;;;;;5120101;27;20043;-73
2022/03/11 08:45:21;;;;;;;8.35;5.65;;;21.50;29.10;;;;;;5124622;27;20043;-71
2022/03/11 08:47:48;;;;;;;5.97;4.60;;;21.50;29.00;;;;;;5103481;27;20032;-71
2022/03/11 08:50:15;;;;;;;5.88;5.22;;;21.40;28.80;;;;;;5095732;27;20113;-72
2022/03/11 08:52:41;;;;;;;7.03;5.25;;;21.40;28.90;;;;;;5121410;27;20498;-69
2022/03/11 08:55:08;;;;;;;8.40;5.68;;;21.20;28.80;;;;;;5097951;27;20040;-69
2022/03/11 08:57:37;;;;;;;8.07;6.32;;;21.10;29.00;;;;;;5105105;27;20065;-69
2022/03/11 09:00:06;;;;;;;10.05;6.97;;;21.00;28.90;;;;;;5122597;27;20047;-68
2022/03/11 09:02:32;;;;;;;6.10;5.40;;;20.80;29.10;;;;;;5100318;27;20048;-69
2022/03/11 09:05:00;;;;;;;6.18;5.40;;;20.70;29.20;;;;;;5099850;27;20043;-70
2022/03/11 09:07:29;;;;;;;7.18;6.45;;;20.50;29.70;;;;;;5092492;27;20509;-69
2022/03/11 09:09:58;;;;;;;7.35;6.15;;;20.40;29.50;;;;;;5098266;27;20788;-67
2022/03/11 09:12:27;;;;;;;6.32;5.20;;;20.30;29.60;;;;;;5102983;27;20062;-68
2022/03/11 09:14:53;;;;;;;8.15;6.07;;;20.10;29.70;;;;;;5093216;27;20615;-75
2022/03/11 09:17:19;;;;;;;7.55;5.40;;;20.10;29.80;;;;;;5105721;27;20442;-68
2022/03/11 09:19:45;;;;;;;7.10;5.13;;;20.00;30.00;;;;;;5088912;27;20386;-71
2022/03/11 09:22:12;;;;;;;5.85;4.47;;;20.00;30.00;;;;;;5106646;27;20027;-71
2022/03/11 09:24:40;;;;;;;8.38;4.90;;;20.00;30.20;;;;;;5104766;27;20050;-73
2022/03/11 09:27:07;;;;;;;6.30;5.35;;;20.00;30.50;;;;;;5108946;27;20035;-71
2022/03/11 09:29:32;;;;;;;7.00;6.03;;;20.00;30.40;;;;;;5122646;27;20035;-71
2022/03/11 09:31:58;;;;;;;6.78;5.95;;;20.00;30.40;;;;;;5095418;27;20032;-70
2022/03/11 09:34:24;;;;;;;7.93;5.50;;;20.10;30.30;;;;;;5123184;27;20517;-70
2022/03/11 09:36:52;;;;;;;5.53;4.93;;;20.10;30.30;;;;;;5107039;27;20466;-70
2022/03/11 09:39:20;;;;;;;5.85;5.25;;;20.10;30.10;;;;;;5128986;27;20050;-71
2022/03/11 09:41:47;;;;;;;6.72;5.05;;;20.20;30.00;;;;;;5102036;27;20086;-70
2022/03/11 09:44:13;;;;;;;7.45;5.95;;;20.30;29.90;;;;;;5097401;27;20043;-70
2022/03/11 09:46:41;;;;;;;6.68;5.30;;;20.40;29.60;;;;;;5107930;27;20039;-71
2022/03/11 09:49:10;;;;;;;6.47;5.57;;;20.50;29.40;;;;;;5118947;27;20059;-71
2022/03/11 09:51:41;;;;;;;8.75;4.90;;;20.50;29.40;;;;;;5105131;27;20031;-70
2022/03/11 09:54:08;;;;;;;7.50;5.38;;;20.60;29.40;;;;;;5119847;27;20043;-70
2022/03/11 09:56:35;;;;;;;7.88;4.90;;;20.70;29.80;;;;;;5099193;27;20282;-71
2022/03/11 09:59:01;;;;;;;6.90;5.15;;;20.70;29.10;;;;;;5103316;27;20039;-70
2022/03/11 10:01:27;;;;;;;5.43;4.57;;;20.80;29.00;;;;;;5123064;27;20112;-70
2022/03/11 10:03:53;;;;;;;7.97;5.55;;;20.90;28.90;;;;;;5119525;27;20050;-70
2022/03/11 10:06:40;;;;;;;6.53;4.70;;;20.90;28.70;;;;;;5119361;27;20029;-70
2022/03/11 10:09:30;;;;;;;9.88;5.53;;;21.00;28.60;;;;;;5112155;27;20088;-70
2022/03/11 10:12:00;;;;;;;6.47;5.43;;;21.00;28.50;;;;;;5110659;27;20034;-70
2022/03/11 10:14:29;;;;;;;8.32;4.90;;;21.00;28.30;;;;;;5108097;27;20035;-70
2022/03/11 10:16:55;;;;;;;7.43;5.22;;;21.10;28.30;;;;;;5106171;27;20088;-69
2022/03/11 10:19:22;;;;;;;5.60;5.10;;;21.10;28.20;;;;;;5101603;27;20035;-69
2022/03/11 10:21:49;;;;;;;9.45;6.53;;;21.10;28.10;;;;;;5103087;27;20092;-72
2022/03/11 10:24:18;;;;;;;6.25;5.65;;;21.10;28.00;;;;;;5120233;27;20071;-67
2022/03/11 10:29:27;;;;;;;6.18;5.50;;;21.20;28.00;;;;;;5062826;28;20480;-68
2022/03/11 10:31:55;;;;;;;5.85;5.35;;;21.20;27.70;;;;;;5061849;28;20047;-68
2022/03/11 10:37:09;;;;;;;5.53;4.80;;;21.30;27.70;;;;;;5107126;27;20440;-68
2022/03/11 10:39:40;;;;;;;6.72;4.80;;;21.40;27.50;;;;;;5104428;27;20566;-68
2022/03/11 10:45:06;;;;;;;6.07;5.47;;;21.50;27.30;;;;;;5054066;27;20459;-68
2022/03/11 10:47:34;;;;;;;5.90;4.88;;;21.60;27.10;;;;;;5036663;28;20056;-69
2022/03/11 10:50:03;;;;;;;5.93;5.30;;;21.70;27.10;;;;;;5055082;28;20358;-68
2022/03/11 10:55:28;;;;;;;6.63;5.93;;;21.70;26.90;;;;;;5117355;27;1173996;-67
2022/03/11 10:57:56;;;;;;;6.20;5.50;;;21.80;26.90;;;;;;5136858;27;20044;-69
2022/03/11 11:05:45;;;;;;;6.78;6.07;;;21.80;26.70;;;;;;5059823;27;20442;-69
2022/03/11 11:08:10;;;;;;;6.18;5.60;;;21.80;26.70;;;;;;5091893;28;20090;-69
2022/03/11 11:10:38;;;;;;;6.65;6.00;;;21.80;26.70;;;;;;5059428;28;20111;-67
2022/03/11 11:13:03;;;;;;;6.93;5.95;;;21.80;26.70;;;;;;5060977;28;20567;-67
2022/03/11 11:15:29;;;;;;;5.57;5.07;;;21.80;26.60;;;;;;5059477;28;20051;-69
2022/03/11 11:17:55;;;;;;;5.82;5.32;;;21.80;26.60;;;;;;5059115;28;20098;-68
2022/03/11 11:23:05;;;;;;;6.78;5.38;;;21.80;26.50;;;;;;5098937;27;20396;-69
2022/03/11 11:25:33;;;;;;;6.28;5.45;;;21.80;26.60;;;;;;5104263;27;20793;-67
2022/03/11 11:28:03;;;;;;;6.43;5.50;;;21.80;26.60;;;;;;5088592;28;20043;-67
2022/03/11 11:30:30;;;;;;;5.22;4.72;;;21.80;26.60;;;;;;5088471;28;20070;-68
2022/03/11 11:32:58;;;;;;;5.97;5.38;;;21.80;26.60;;;;;;5106014;27;20127;-67
2022/03/11 11:35:32;;;;;;;5.97;5.47;;;21.80;26.60;;;;;;5089408;28;20047;-67
2022/03/11 11:38:00;;;;;;;5.47;4.88;;;21.80;26.60;;;;;;5091033;28;20041;-67
2022/03/11 11:51:16;;;;;;;9.98;6.15;;;21.80;26.70;;;;;;5114070;27;1170021;-69
2022/03/11 11:53:51;;;;;;;7.88;5.70;;;21.60;27.30;;;;;;5137341;27;20057;-69
2022/03/11 11:56:34;;;;;;;7.50;5.30;;;21.60;27.50;;;;;;5143256;27;20130;-68
2022/03/11 11:59:02;;;;;;;11.88;5.75;;;21.50;27.60;;;;;;5139258;27;20038;-68
2022/03/11 12:07:13;;;;;;;6.93;6.32;;;21.30;27.80;;;;;;5128023;27;1175161;-71
2022/03/11 12:25:49;;;;;;;8.02;6.30;;;20.80;28.50;;;;;;5101478;27;20414;-69
2022/03/11 12:31:01;;;;;;;7.80;7.00;;;20.70;28.70;;;;;;5115172;27;1170787;-67
2022/03/11 12:36:16;;;;;;;9.52;7.60;;;20.50;28.60;;;;;;5064435;27;20508;-72
2022/03/11 12:38:43;;;;;;;8.30;6.95;;;20.40;28.60;;;;;;5045274;28;20051;-68
2022/03/11 12:43:48;;;;;;;7.35;6.53;;;20.40;28.70;;;;;;5110106;27;20491;-68
2022/03/11 12:46:14;;;;;;;7.35;6.03;;;20.20;29.10;;;;;;5110102;27;20154;-71
2022/03/11 12:48:43;;;;;;;7.78;5.93;;;20.20;29.40;;;;;;5108545;27;20047;-68
2022/03/11 12:51:11;;;;;;;5.97;5.32;;;20.30;29.60;;;;;;5104099;27;20094;-72
2022/03/11 12:53:38;;;;;;;6.60;6.07;;;20.40;29.50;;;;;;5118926;27;20044;-69
2022/03/11 12:56:05;;;;;;;6.20;5.60;;;20.60;29.60;;;;;;5121379;27;20066;-71
2022/03/11 12:58:33;;;;;;;7.55;5.55;;;20.70;29.70;;;;;;5108794;27;20027;-69
2022/03/11 13:01:02;;;;;;;6.55;5.63;;;20.90;29.80;;;;;;5105660;28;20043;-70
2022/03/11 13:06:09;;;;;;;5.55;5.03;;;21.00;29.50;;;;;;5056365;27;20463;-68
2022/03/11 13:08:36;;;;;;;7.60;5.40;;;21.30;29.30;;;;;;5053848;28;20207;-68
2022/03/11 13:11:04;;;;;;;5.65;4.90;;;21.40;29.20;;;;;;5049532;28;20041;-70
2022/03/11 13:13:31;;;;;;;5.65;4.63;;;21.60;29.20;;;;;;5046888;28;20048;-72
2022/03/11 13:15:58;;;;;;;7.45;6.00;;;21.70;29.20;;;;;;5064687;28;20389;-69
2022/03/11 13:18:27;;;;;;;5.63;5.13;;;21.80;29.10;;;;;;5051110;28;21012;-74
2022/03/11 13:20:57;;;;;;;5.90;5.05;;;21.80;28.80;;;;;;5051590;28;20064;-68
2022/03/11 13:28:49;;;;;;;5.43;4.90;;;22.20;28.50;;;;;;5089866;27;20405;-69
2022/03/11 13:36:44;;;;;;;8.85;4.88;;;22.20;28.40;;;;;;5127221;27;1172011;-74
2022/03/11 13:39:15;;;;;;;5.05;4.55;;;22.30;28.80;;;;;;5133943;27;20091;-74
2022/03/11 13:47:15;;;;;;;6.53;4.57;;;22.40;28.90;;;;;;5076313;27;20422;-80
2022/03/11 13:49:44;;;;;;;7.93;4.80;;;22.50;28.90;;;;;;5066480;28;20079;-71
2022/03/11 13:52:11;;;;;;;7.65;5.32;;;22.50;28.70;;;;;;5046524;28;20041;-71
2022/03/11 13:54:41;;;;;;;7.50;5.10;;;22.50;28.60;;;;;;5060659;28;20052;-71
2022/03/11 13:57:28;;;;;;;6.55;4.82;;;22.50;28.60;;;;;;5061359;28;20067;-69
2022/03/11 13:59:58;;;;;;;4.90;4.35;;;22.50;28.50;;;;;;5058982;28;20079;-68
2022/03/11 14:02:31;;;;;;;8.60;4.53;;;22.50;28.30;;;;;;5078770;28;20036;-69